createdAt,value
2019-01-27T00:00:47.756Z,5.83
2019-01-27T00:01:47.873Z,5.83
2019-01-27T00:02:48.013Z,5.83
2019-01-27T00:03:47.552Z,5.81
2019-01-27T00:04:48.823Z,5.8
2019-01-27T00:05:47.688Z,5.81
2019-01-27T00:06:47.758Z,5.79
2019-01-27T00:07:47.765Z,5.81
2019-01-27T00:08:47.759Z,5.81
2019-01-27T00:09:47.663Z,5.8
2019-01-27T00:10:47.830Z,5.81
2019-01-27T00:11:47.740Z,5.8
2019-01-27T00:12:47.619Z,5.81
2019-01-27T00:13:47.711Z,5.81
2019-01-27T00:14:47.957Z,5.8
2019-01-27T00:15:47.597Z,5.79
2019-01-27T00:16:48.187Z,5.8
2019-01-27T00:17:47.585Z,5.79
2019-01-27T00:18:47.650Z,5.79
2019-01-27T00:19:47.657Z,5.79
2019-01-27T00:20:47.993Z,5.79
2019-01-27T00:21:47.666Z,5.78
2019-01-27T00:22:48.113Z,5.77
2019-01-27T00:23:49.389Z,5.79
2019-01-27T00:24:47.702Z,5.78
2019-01-27T00:25:47.835Z,5.77
2019-01-27T00:26:48.826Z,5.76
2019-01-27T00:27:47.818Z,5.76
2019-01-27T00:28:47.707Z,5.77
2019-01-27T00:29:47.614Z,5.77
2019-01-27T00:30:47.855Z,5.78
2019-01-27T00:31:47.555Z,5.77
2019-01-27T00:32:49.367Z,5.78
2019-01-27T00:33:47.569Z,5.79
2019-01-27T00:34:48.101Z,5.78
2019-01-27T00:35:47.559Z,5.78
2019-01-27T00:36:47.601Z,5.78
2019-01-27T00:37:47.662Z,5.77
2019-01-27T00:38:47.554Z,5.78
2019-01-27T00:39:47.586Z,5.78
2019-01-27T00:40:47.826Z,5.78
2019-01-27T00:41:47.596Z,5.8
2019-01-27T00:42:47.558Z,5.79
2019-01-27T00:43:47.565Z,5.8
2019-01-27T00:44:47.523Z,5.78
2019-01-27T00:46:47.890Z,5.76
2019-01-27T00:47:47.557Z,5.78
2019-01-27T00:48:47.521Z,5.78
2019-01-27T00:49:47.508Z,5.78
2019-01-27T00:50:47.602Z,5.77
2019-01-27T00:51:47.541Z,5.77
2019-01-27T00:52:47.579Z,5.79
2019-01-27T00:53:48.372Z,5.77
2019-01-27T00:54:48.339Z,5.77
2019-01-27T00:55:47.596Z,5.76
2019-01-27T00:56:47.648Z,5.77
2019-01-27T00:57:47.522Z,5.77
2019-01-27T00:58:47.710Z,5.77
2019-01-27T00:59:47.854Z,5.75
2019-01-27T01:00:47.722Z,5.77
2019-01-27T01:01:47.700Z,5.78
2019-01-27T01:02:47.560Z,5.79
2019-01-27T01:03:48.496Z,5.77
2019-01-27T01:04:47.772Z,5.78
2019-01-27T01:05:47.801Z,5.78
2019-01-27T01:06:47.623Z,5.79
2019-01-27T01:07:47.551Z,5.78
2019-01-27T01:08:47.531Z,5.78
2019-01-27T01:09:47.617Z,5.77
2019-01-27T01:10:47.493Z,5.78
2019-01-27T01:11:47.610Z,5.78
2019-01-27T01:12:47.573Z,5.78
2019-01-27T01:13:47.592Z,5.79
2019-01-27T01:14:47.672Z,5.77
2019-01-27T01:15:47.686Z,5.79
2019-01-27T01:16:47.616Z,5.78
2019-01-27T01:17:47.843Z,5.78
2019-01-27T01:18:47.882Z,5.78
2019-01-27T01:19:47.794Z,5.79
2019-01-27T01:20:47.515Z,5.79
2019-01-27T01:21:47.492Z,5.8
2019-01-27T01:22:47.602Z,5.77
2019-01-27T01:23:47.582Z,5.78
2019-01-27T01:24:47.753Z,5.77
2019-01-27T01:25:47.499Z,5.8
2019-01-27T01:26:47.466Z,5.79
2019-01-27T01:27:47.585Z,5.78
2019-01-27T01:28:47.775Z,5.79
2019-01-27T01:29:47.772Z,5.78
2019-01-27T01:30:47.965Z,5.79
2019-01-27T01:31:47.810Z,5.79
2019-01-27T01:32:47.462Z,5.79
2019-01-27T01:33:47.566Z,5.8
2019-01-27T01:34:48.212Z,5.82
2019-01-27T01:35:47.717Z,5.81
2019-01-27T01:36:47.741Z,5.8
2019-01-27T01:37:48.293Z,5.82
2019-01-27T01:38:47.906Z,5.81
2019-01-27T01:39:47.452Z,5.8
2019-01-27T01:40:48.242Z,5.81
2019-01-27T01:41:47.680Z,5.81
2019-01-27T01:42:47.739Z,5.82
2019-01-27T01:43:47.454Z,5.82
2019-01-27T01:44:49.251Z,5.82
2019-01-27T01:45:48.285Z,5.82
2019-01-27T01:46:47.542Z,5.85
2019-01-27T01:47:47.683Z,5.85
2019-01-27T01:48:47.885Z,5.87
2019-01-27T01:49:48.113Z,5.86
2019-01-27T01:50:47.726Z,5.87
2019-01-27T01:51:47.703Z,5.86
2019-01-27T01:52:47.828Z,5.86
2019-01-27T01:53:47.735Z,5.88
2019-01-27T01:54:47.244Z,5.88
2019-01-27T01:55:47.439Z,5.88
2019-01-27T01:56:47.631Z,5.89
2019-01-27T01:57:47.449Z,5.89
2019-01-27T01:58:47.779Z,5.91
2019-01-27T01:59:47.814Z,5.9
2019-01-27T02:00:47.493Z,5.89
2019-01-27T02:01:47.419Z,5.91
2019-01-27T02:02:49.232Z,5.91
2019-01-27T02:03:47.379Z,5.91
2019-01-27T02:04:47.392Z,5.9
2019-01-27T02:05:47.713Z,5.91
2019-01-27T02:06:47.418Z,5.91
2019-01-27T02:07:47.949Z,5.91
2019-01-27T02:08:47.529Z,5.91
2019-01-27T02:09:47.926Z,5.93
2019-01-27T02:10:47.479Z,5.92
2019-01-27T02:11:47.478Z,5.92
2019-01-27T02:12:48.028Z,5.93
2019-01-27T02:13:47.494Z,5.91
2019-01-27T02:14:47.674Z,5.91
2019-01-27T02:15:47.423Z,5.92
2019-01-27T02:16:47.513Z,5.92
2019-01-27T02:17:47.445Z,5.92
2019-01-27T02:18:47.447Z,5.92
2019-01-27T02:19:47.690Z,5.92
2019-01-27T02:20:47.448Z,5.92
2019-01-27T02:21:48.063Z,5.91
2019-01-27T02:22:47.519Z,5.91
2019-01-27T02:23:47.379Z,5.91
2019-01-27T02:24:47.468Z,5.93
2019-01-27T02:25:47.446Z,5.92
2019-01-27T02:26:47.445Z,5.9
2019-01-27T02:27:47.359Z,5.9
2019-01-27T02:28:47.393Z,5.92
2019-01-27T02:29:47.546Z,5.93
2019-01-27T02:30:47.567Z,5.9
2019-01-27T02:31:47.417Z,5.89
2019-01-27T02:32:47.502Z,5.92
2019-01-27T02:33:47.584Z,5.91
2019-01-27T02:34:47.928Z,5.9
2019-01-27T02:35:47.547Z,5.9
2019-01-27T02:36:47.535Z,5.91
2019-01-27T02:37:47.373Z,5.9
2019-01-27T02:38:47.722Z,5.9
2019-01-27T02:39:47.848Z,5.91
2019-01-27T02:40:48.180Z,5.89
2019-01-27T02:41:47.383Z,5.9
2019-01-27T02:42:47.666Z,5.9
2019-01-27T02:43:47.418Z,5.88
2019-01-27T02:44:47.585Z,5.9
2019-01-27T02:45:47.404Z,5.9
2019-01-27T02:46:47.677Z,5.9
2019-01-27T02:47:47.398Z,5.9
2019-01-27T02:48:47.404Z,5.89
2019-01-27T02:49:47.493Z,5.89
2019-01-27T02:50:47.471Z,5.89
2019-01-27T02:51:47.401Z,5.9
2019-01-27T02:52:47.943Z,5.89
2019-01-27T02:53:47.433Z,5.89
2019-01-27T02:54:47.371Z,5.89
2019-01-27T02:55:47.674Z,5.87
2019-01-27T02:56:47.637Z,5.86
2019-01-27T02:57:47.394Z,5.86
2019-01-27T02:58:47.382Z,5.86
2019-01-27T02:59:47.463Z,5.87
2019-01-27T03:00:47.537Z,5.87
2019-01-27T03:01:47.903Z,5.87
2019-01-27T03:02:48.219Z,5.87
2019-01-27T03:03:47.404Z,5.87
2019-01-27T03:04:47.850Z,5.86
2019-01-27T03:05:47.424Z,5.86
2019-01-27T03:06:47.610Z,5.86
2019-01-27T03:07:47.373Z,5.88
2019-01-27T03:08:49.155Z,5.86
2019-01-27T03:09:47.741Z,5.87
2019-01-27T03:10:47.393Z,5.85
2019-01-27T03:11:47.863Z,5.87
2019-01-27T03:12:47.304Z,5.87
2019-01-27T03:13:48.013Z,5.86
2019-01-27T03:14:47.395Z,5.87
2019-01-27T03:15:47.373Z,5.88
2019-01-27T03:16:47.377Z,5.87
2019-01-27T03:17:49.123Z,5.88
2019-01-27T03:18:47.332Z,5.87
2019-01-27T03:19:47.338Z,5.87
2019-01-27T03:20:49.110Z,5.87
2019-01-27T03:21:47.250Z,5.89
2019-01-27T03:22:47.393Z,5.89
2019-01-27T03:23:47.661Z,5.9
2019-01-27T03:24:47.662Z,5.91
2019-01-27T03:25:47.258Z,5.91
2019-01-27T03:26:47.545Z,5.91
2019-01-27T03:27:47.260Z,5.93
2019-01-27T03:28:47.327Z,5.95
2019-01-27T03:29:47.388Z,5.93
2019-01-27T03:30:47.302Z,5.93
2019-01-27T03:31:47.727Z,5.93
2019-01-27T03:32:47.678Z,5.92
2019-01-27T03:33:47.315Z,5.92
2019-01-27T03:34:47.521Z,5.91
2019-01-27T03:35:48.445Z,5.93
2019-01-27T03:36:47.433Z,5.92
2019-01-27T03:37:47.803Z,5.93
2019-01-27T03:38:47.561Z,5.93
2019-01-27T03:39:47.826Z,5.92
2019-01-27T03:40:47.305Z,5.93
2019-01-27T03:41:47.568Z,5.94
2019-01-27T03:42:48.581Z,5.91
2019-01-27T03:43:47.263Z,5.92
2019-01-27T03:44:47.428Z,5.93
2019-01-27T03:45:48.729Z,5.93
2019-01-27T03:46:47.646Z,5.93
2019-01-27T03:47:47.492Z,5.92
2019-01-27T03:48:47.676Z,5.92
2019-01-27T03:49:47.330Z,5.93
2019-01-27T03:50:48.031Z,5.92
2019-01-27T03:51:49.161Z,5.93
2019-01-27T03:52:47.470Z,5.93
2019-01-27T03:53:47.288Z,5.93
2019-01-27T03:54:47.255Z,5.94
2019-01-27T03:55:47.303Z,5.92
2019-01-27T03:56:47.233Z,5.92
2019-01-27T03:57:47.282Z,5.92
2019-01-27T03:58:47.328Z,5.91
2019-01-27T03:59:47.377Z,5.92
2019-01-27T04:00:47.672Z,5.93
2019-01-27T04:01:47.239Z,5.91
2019-01-27T04:02:47.598Z,5.92
2019-01-27T04:03:47.519Z,5.91
2019-01-27T04:04:47.366Z,5.9
2019-01-27T04:05:47.373Z,5.9
2019-01-27T04:06:47.295Z,5.91
2019-01-27T04:07:47.225Z,5.9
2019-01-27T04:08:47.262Z,5.91
2019-01-27T04:09:47.248Z,5.91
2019-01-27T04:10:47.338Z,5.92
2019-01-27T04:11:47.214Z,5.93
2019-01-27T04:12:47.251Z,5.93
2019-01-27T04:13:47.207Z,5.93
2019-01-27T04:14:47.364Z,5.93
2019-01-27T04:15:47.217Z,5.93
2019-01-27T04:16:47.320Z,5.96
2019-01-27T04:17:47.429Z,5.98
2019-01-27T04:18:47.258Z,5.99
2019-01-27T04:19:47.601Z,5.99
2019-01-27T04:20:47.277Z,6.01
2019-01-27T04:21:49.029Z,6.02
2019-01-27T04:22:47.324Z,6.01
2019-01-27T04:23:47.457Z,6.01
2019-01-27T04:24:47.898Z,6.04
2019-01-27T04:25:47.229Z,6.03
2019-01-27T04:26:47.975Z,6.04
2019-01-27T04:27:48.755Z,6.03
2019-01-27T04:28:47.180Z,6.04
2019-01-27T04:29:47.776Z,6.05
2019-01-27T04:30:47.489Z,6.05
2019-01-27T04:31:47.613Z,6.07
2019-01-27T04:32:47.587Z,6.07
2019-01-27T04:33:47.218Z,6.06
2019-01-27T04:34:47.184Z,6.06
2019-01-27T04:35:47.198Z,6.06
2019-01-27T04:36:47.182Z,6.07
2019-01-27T04:37:47.539Z,6.06
2019-01-27T04:38:47.167Z,6.07
2019-01-27T04:39:47.154Z,6.08
2019-01-27T04:40:47.239Z,6.08
2019-01-27T04:41:47.214Z,6.1
2019-01-27T04:42:47.227Z,6.1
2019-01-27T04:43:47.475Z,6.08
2019-01-27T04:44:47.224Z,6.1
2019-01-27T04:45:47.239Z,6.08
2019-01-27T04:46:47.240Z,6.07
2019-01-27T04:47:47.588Z,6.1
2019-01-27T04:48:47.729Z,6.09
2019-01-27T04:49:47.292Z,6.09
2019-01-27T04:50:49.003Z,6.09
2019-01-27T04:51:47.616Z,6.07
2019-01-27T04:52:47.240Z,6.08
2019-01-27T04:53:47.454Z,6.09
2019-01-27T04:54:47.448Z,6.08
2019-01-27T04:55:47.341Z,6.08
2019-01-27T04:56:48.292Z,6.09
2019-01-27T04:57:47.333Z,6.08
2019-01-27T04:58:47.387Z,6.09
2019-01-27T04:59:47.278Z,6.09
2019-01-27T05:00:47.321Z,6.1
2019-01-27T05:01:47.216Z,6.1
2019-01-27T05:02:47.198Z,6.08
2019-01-27T05:03:47.419Z,6.09
2019-01-27T05:04:47.224Z,6.08
2019-01-27T05:05:47.189Z,6.09
2019-01-27T05:06:47.216Z,6.1
2019-01-27T05:07:47.450Z,6.09
2019-01-27T05:08:47.222Z,6.11
2019-01-27T05:09:47.313Z,6.1
2019-01-27T05:10:47.259Z,6.12
2019-01-27T05:11:47.293Z,6.1
2019-01-27T05:12:47.271Z,6.1
2019-01-27T05:13:47.903Z,6.1
2019-01-27T05:14:47.222Z,6.11
2019-01-27T05:15:47.492Z,6.12
2019-01-27T05:16:48.010Z,6.1
2019-01-27T05:17:47.521Z,6.12
2019-01-27T05:18:47.288Z,6.12
2019-01-27T05:19:47.466Z,6.11
2019-01-27T05:20:47.296Z,6.11
2019-01-27T05:21:47.335Z,6.11
2019-01-27T05:22:47.367Z,6.11
2019-01-27T05:23:47.185Z,6.11
2019-01-27T05:24:47.765Z,6.1
2019-01-27T05:25:48.095Z,6.12
2019-01-27T05:26:47.094Z,6.09
2019-01-27T05:27:47.248Z,6.11
2019-01-27T05:28:47.143Z,6.11
2019-01-27T05:29:47.267Z,6.1
2019-01-27T05:30:47.118Z,6.11
2019-01-27T05:31:47.377Z,6.11
2019-01-27T05:32:47.413Z,6.11
2019-01-27T05:33:47.305Z,6.11
2019-01-27T05:34:47.317Z,6.11
2019-01-27T05:35:47.252Z,6.13
2019-01-27T05:36:47.432Z,6.13
2019-01-27T05:37:47.082Z,6.14
2019-01-27T05:38:47.243Z,6.14
2019-01-27T05:39:47.380Z,6.13
2019-01-27T05:40:47.157Z,6.12
2019-01-27T05:41:47.146Z,6.12
2019-01-27T05:42:47.150Z,6.13
2019-01-27T05:43:47.218Z,6.13
2019-01-27T05:44:47.162Z,6.13
2019-01-27T05:45:47.145Z,6.14
2019-01-27T05:46:47.569Z,6.14
2019-01-27T05:47:47.140Z,6.14
2019-01-27T05:48:47.426Z,6.13
2019-01-27T05:49:47.339Z,6.13
2019-01-27T05:50:47.051Z,6.14
2019-01-27T05:51:47.272Z,6.14
2019-01-27T05:52:47.125Z,6.15
2019-01-27T05:53:47.197Z,6.16
2019-01-27T05:54:47.183Z,6.15
2019-01-27T05:55:47.165Z,6.17
2019-01-27T05:56:47.312Z,6.16
2019-01-27T05:57:47.209Z,6.17
2019-01-27T05:58:47.834Z,6.16
2019-01-27T05:59:47.156Z,6.16
2019-01-27T06:00:46.828Z,6.17
2019-01-27T06:01:47.677Z,6.17
2019-01-27T06:02:47.106Z,6.17
2019-01-27T06:03:47.522Z,6.17
2019-01-27T06:04:47.104Z,6.16
2019-01-27T06:05:47.308Z,6.15
2019-01-27T06:06:47.200Z,6.15
2019-01-27T06:07:47.528Z,6.16
2019-01-27T06:08:47.975Z,6.17
2019-01-27T06:09:48.198Z,6.14
2019-01-27T06:10:47.147Z,6.17
2019-01-27T06:11:47.348Z,6.17
2019-01-27T06:12:47.651Z,6.16
2019-01-27T06:13:47.572Z,6.16
2019-01-27T06:14:47.431Z,6.17
2019-01-27T06:15:47.290Z,6.16
2019-01-27T06:16:47.283Z,6.17
2019-01-27T06:17:47.046Z,6.17
2019-01-27T06:18:47.285Z,6.17
2019-01-27T06:19:47.611Z,6.17
2019-01-27T06:20:47.132Z,6.17
2019-01-27T06:21:47.834Z,6.16
2019-01-27T06:22:47.079Z,6.16
2019-01-27T06:23:47.091Z,6.17
2019-01-27T06:24:47.649Z,6.16
2019-01-27T06:25:47.180Z,6.18
2019-01-27T06:26:47.315Z,6.18
2019-01-27T06:27:47.128Z,6.16
2019-01-27T06:28:47.109Z,6.16
2019-01-27T06:29:47.284Z,6.16
2019-01-27T06:30:47.584Z,6.16
2019-01-27T06:31:47.348Z,6.17
2019-01-27T06:32:48.403Z,6.16
2019-01-27T06:33:47.317Z,6.14
2019-01-27T06:34:47.082Z,6.14
2019-01-27T06:35:47.328Z,6.15
2019-01-27T06:36:47.215Z,6.17
2019-01-27T06:37:47.347Z,6.17
2019-01-27T06:38:47.224Z,6.18
2019-01-27T06:39:47.101Z,6.18
2019-01-27T06:40:47.238Z,6.18
2019-01-27T06:41:47.019Z,6.17
2019-01-27T06:42:47.103Z,6.19
2019-01-27T06:43:47.391Z,6.21
2019-01-27T06:44:47.268Z,6.19
2019-01-27T06:45:47.686Z,6.18
2019-01-27T06:46:47.147Z,6.18
2019-01-27T06:47:47.109Z,6.17
2019-01-27T06:48:47.402Z,6.17
2019-01-27T06:49:47.086Z,6.19
2019-01-27T06:50:47.206Z,6.18
2019-01-27T06:51:47.217Z,6.19
2019-01-27T06:52:47.090Z,6.16
2019-01-27T06:53:47.079Z,6.18
2019-01-27T06:54:47.220Z,6.18
2019-01-27T06:55:47.109Z,6.18
2019-01-27T06:56:46.942Z,6.18
2019-01-27T06:57:47.171Z,6.19
2019-01-27T06:58:47.127Z,6.19
2019-01-27T06:59:47.153Z,6.19
2019-01-27T07:00:46.966Z,6.18
2019-01-27T07:01:47.185Z,6.17
2019-01-27T07:02:47.265Z,6.18
2019-01-27T07:03:47.043Z,6.18
2019-01-27T07:04:47.300Z,6.2
2019-01-27T07:05:46.980Z,6.19
2019-01-27T07:06:47.228Z,6.19
2019-01-27T07:07:47.055Z,6.19
2019-01-27T07:08:46.985Z,6.19
2019-01-27T07:09:47.135Z,6.2
2019-01-27T07:10:47.345Z,6.19
2019-01-27T07:11:47.409Z,6.17
2019-01-27T07:12:47.485Z,6.18
2019-01-27T07:13:47.977Z,6.18
2019-01-27T07:14:47.193Z,6.18
2019-01-27T07:15:47.835Z,6.19
2019-01-27T07:16:47.113Z,6.19
2019-01-27T07:17:47.332Z,6.19
2019-01-27T07:18:47.255Z,6.2
2019-01-27T07:19:47.086Z,6.21
2019-01-27T07:20:47.411Z,6.21
2019-01-27T07:21:47.132Z,6.21
2019-01-27T07:22:46.932Z,6.21
2019-01-27T07:23:46.911Z,6.21
2019-01-27T07:24:47.357Z,6.21
2019-01-27T07:25:47.060Z,6.21
2019-01-27T07:26:47.025Z,6.19
2019-01-27T07:27:47.462Z,6.22
2019-01-27T07:28:47.225Z,6.23
2019-01-27T07:29:47.012Z,6.22
2019-01-27T07:30:47.077Z,6.22
2019-01-27T07:31:46.964Z,6.24
2019-01-27T07:32:46.941Z,6.22
2019-01-27T07:33:47.202Z,6.22
2019-01-27T07:34:46.932Z,6.21
2019-01-27T07:35:47.030Z,6.21
2019-01-27T07:36:47.070Z,6.22
2019-01-27T07:37:46.940Z,6.23
2019-01-27T07:38:47.130Z,6.22
2019-01-27T07:39:46.980Z,6.22
2019-01-27T07:40:47.348Z,6.22
2019-01-27T07:41:47.018Z,6.21
2019-01-27T07:42:48.781Z,6.21
2019-01-27T07:43:47.167Z,6.22
2019-01-27T07:44:47.700Z,6.22
2019-01-27T07:45:46.960Z,6.2
2019-01-27T07:46:46.926Z,6.21
2019-01-27T07:47:47.132Z,6.21
2019-01-27T07:48:46.897Z,6.2
2019-01-27T07:49:47.279Z,6.2
2019-01-27T07:50:47.054Z,6.2
2019-01-27T07:51:47.318Z,6.19
2019-01-27T07:52:46.936Z,6.21
2019-01-27T07:53:47.641Z,6.2
2019-01-27T07:54:47.390Z,6.21
2019-01-27T07:55:46.888Z,6.21
2019-01-27T07:56:47.157Z,6.2
2019-01-27T07:57:47.683Z,6.19
2019-01-27T07:58:46.882Z,6.18
2019-01-27T07:59:47.011Z,6.18
2019-01-27T08:00:46.950Z,6.17
2019-01-27T08:01:46.824Z,6.17
2019-01-27T08:02:46.935Z,6.18
2019-01-27T08:03:47.304Z,6.17
2019-01-27T08:04:47.280Z,6.17
2019-01-27T08:05:47.750Z,6.18
2019-01-27T08:06:46.976Z,6.18
2019-01-27T08:07:46.928Z,6.18
2019-01-27T08:08:46.878Z,6.16
2019-01-27T08:09:47.124Z,6.16
2019-01-27T08:10:46.890Z,6.15
2019-01-27T08:11:47.122Z,6.14
2019-01-27T08:12:47.029Z,6.15
2019-01-27T08:13:47.245Z,6.15
2019-01-27T08:14:46.962Z,6.15
2019-01-27T08:15:46.825Z,6.14
2019-01-27T08:16:46.851Z,6.14
2019-01-27T08:17:46.885Z,6.16
2019-01-27T08:18:47.169Z,6.15
2019-01-27T08:19:47.152Z,6.14
2019-01-27T08:20:47.110Z,6.14
2019-01-27T08:21:47.013Z,6.13
2019-01-27T08:22:47.094Z,6.12
2019-01-27T08:23:46.971Z,6.12
2019-01-27T08:24:47.753Z,6.12
2019-01-27T08:25:47.566Z,6.13
2019-01-27T08:26:46.950Z,6.14
2019-01-27T08:27:46.954Z,6.11
2019-01-27T08:28:46.939Z,6.12
2019-01-27T08:29:48.660Z,6.12
2019-01-27T08:30:46.807Z,6.13
2019-01-27T08:31:46.898Z,6.12
2019-01-27T08:32:46.930Z,6.11
2019-01-27T08:33:48.656Z,6.13
2019-01-27T08:34:47.296Z,6.14
2019-01-27T08:35:47.209Z,6.12
2019-01-27T08:36:47.182Z,6.12
2019-01-27T08:37:46.888Z,6.12
2019-01-27T08:39:47.002Z,6.12
2019-01-27T08:40:47.145Z,6.12
2019-01-27T08:41:47.097Z,6.14
2019-01-27T08:42:46.877Z,6.13
2019-01-27T08:43:47.165Z,6.13
2019-01-27T08:44:46.938Z,6.13
2019-01-27T08:45:46.822Z,6.15
2019-01-27T08:46:46.934Z,6.15
2019-01-27T08:47:47.087Z,6.17
2019-01-27T08:48:46.941Z,6.17
2019-01-27T08:49:46.896Z,6.18
2019-01-27T08:50:47.107Z,6.2
2019-01-27T08:51:47.121Z,6.21
2019-01-27T08:52:47.156Z,6.25
2019-01-27T08:53:48.592Z,6.24
2019-01-27T08:54:47.069Z,6.26
2019-01-27T08:55:46.835Z,6.27
2019-01-27T08:56:46.898Z,6.26
2019-01-27T08:57:46.893Z,6.26
2019-01-27T08:58:46.949Z,6.23
2019-01-27T08:59:47.072Z,6.23
2019-01-27T09:00:47.082Z,6.23
2019-01-27T09:01:46.936Z,6.21
2019-01-27T09:02:47.623Z,6.21
2019-01-27T09:03:46.860Z,6.18
2019-01-27T09:04:47.219Z,6.19
2019-01-27T09:05:46.761Z,6.18
2019-01-27T09:06:46.843Z,6.2
2019-01-27T09:07:46.889Z,6.19
2019-01-27T09:08:47.495Z,6.18
2019-01-27T09:09:47.641Z,6.18
2019-01-27T09:10:47.140Z,6.19
2019-01-27T09:11:47.194Z,6.19
2019-01-27T09:12:46.825Z,6.18
2019-01-27T09:13:47.326Z,6.19
2019-01-27T09:14:46.941Z,6.18
2019-01-27T09:15:46.797Z,6.18
2019-01-27T09:16:46.807Z,6.16
2019-01-27T09:17:46.742Z,6.17
2019-01-27T09:18:46.793Z,6.17
2019-01-27T09:19:47.303Z,6.17
2019-01-27T09:20:47.283Z,6.17
2019-01-27T09:21:46.787Z,6.14
2019-01-27T09:22:47.066Z,6.16
2019-01-27T09:23:46.828Z,6.15
2019-01-27T09:24:47.123Z,6.17
2019-01-27T09:25:47.263Z,6.16
2019-01-27T09:26:46.880Z,6.17
2019-01-27T09:27:46.907Z,6.17
2019-01-27T09:28:46.771Z,6.16
2019-01-27T09:29:46.765Z,6.13
2019-01-27T09:30:47.928Z,6.14
2019-01-27T09:31:47.037Z,6.15
2019-01-27T09:32:48.094Z,6.14
2019-01-27T09:34:02.887Z,6.1
2019-01-27T09:34:46.889Z,6.13
2019-01-27T09:35:47.694Z,6.16
2019-01-27T09:36:48.605Z,6.14
2019-01-27T09:37:47.941Z,6.15
2019-01-27T09:38:46.981Z,6.13
2019-01-27T09:39:47.084Z,6.13
2019-01-27T09:40:47.190Z,6.14
2019-01-27T09:41:46.937Z,6.15
2019-01-27T09:42:48.691Z,6.15
2019-01-27T09:43:47.286Z,6.15
2019-01-27T09:44:46.959Z,6.16
2019-01-27T09:46:11.822Z,6.17
2019-01-27T09:46:46.738Z,6.17
2019-01-27T09:47:46.737Z,6.17
2019-01-27T09:48:47.106Z,6.18
2019-01-27T09:49:46.870Z,6.16
2019-01-27T09:50:46.995Z,6.17
2019-01-27T09:51:47.061Z,6.15
2019-01-27T09:52:46.859Z,6.18
2019-01-27T09:53:47.022Z,6.19
2019-01-27T09:54:46.957Z,6.19
2019-01-27T09:56:46.968Z,6.16
2019-01-27T09:57:51.571Z,6.17
2019-01-27T09:58:46.760Z,6.13
2019-01-27T09:59:46.977Z,6.15
2019-01-27T10:00:46.985Z,6.17
2019-01-27T10:01:46.812Z,6.16
2019-01-27T10:02:46.694Z,6.18
2019-01-27T10:03:46.730Z,6.19
2019-01-27T10:04:46.772Z,6.22
2019-01-27T10:05:46.694Z,6.18
2019-01-27T10:06:46.990Z,6.15
2019-01-27T10:07:46.806Z,6.18
2019-01-27T10:08:46.732Z,6.2
2019-01-27T10:09:46.828Z,6.2
2019-01-27T10:10:46.836Z,6.2
2019-01-27T10:11:46.720Z,6.22
2019-01-27T10:12:46.686Z,6.22
2019-01-27T10:13:46.675Z,6.23
2019-01-27T10:14:46.851Z,6.26
2019-01-27T10:15:46.774Z,6.26
2019-01-27T10:16:46.745Z,6.24
2019-01-27T10:17:46.687Z,6.27
2019-01-27T10:18:47.325Z,6.27
2019-01-27T10:19:47.063Z,6.29
2019-01-27T10:20:46.797Z,6.3
2019-01-27T10:21:47.250Z,6.31
2019-01-27T10:22:46.974Z,6.32
2019-01-27T10:23:46.839Z,6.32
2019-01-27T10:24:46.828Z,6.34
2019-01-27T10:25:46.478Z,6.34
2019-01-27T10:26:46.695Z,6.37
2019-01-27T10:27:46.753Z,6.37
2019-01-27T10:28:46.712Z,6.39
2019-01-27T10:29:46.792Z,6.4
2019-01-27T10:30:46.726Z,6.42
2019-01-27T10:31:48.578Z,6.43
2019-01-27T10:32:46.741Z,6.45
2019-01-27T10:33:46.745Z,6.44
2019-01-27T10:34:46.701Z,6.45
2019-01-27T10:35:47.016Z,6.47
2019-01-27T10:36:46.926Z,6.5
2019-01-27T10:37:46.845Z,6.52
2019-01-27T10:38:46.848Z,6.52
2019-01-27T10:39:48.296Z,6.52
2019-01-27T10:40:46.771Z,6.54
2019-01-27T10:41:46.679Z,6.53
2019-01-27T10:42:47.008Z,6.53
2019-01-27T10:43:47.056Z,6.54
2019-01-27T10:44:46.676Z,6.56
2019-01-27T10:45:46.677Z,6.56
2019-01-27T10:46:46.633Z,6.54
2019-01-27T10:47:47.119Z,6.55
2019-01-27T10:48:46.679Z,6.57
2019-01-27T10:49:47.514Z,6.55
2019-01-27T10:50:46.954Z,6.55
2019-01-27T10:51:46.989Z,6.56
2019-01-27T10:52:46.736Z,6.54
2019-01-27T10:53:47.398Z,6.53
2019-01-27T10:54:46.616Z,6.55
2019-01-27T10:55:48.457Z,6.55
2019-01-27T10:56:46.651Z,6.55
2019-01-27T10:57:48.477Z,6.55
2019-01-27T10:58:46.866Z,6.55
2019-01-27T10:59:47.238Z,6.56
2019-01-27T11:00:46.414Z,6.56
2019-01-27T11:01:48.898Z,6.58
2019-01-27T11:02:50.160Z,6.55
2019-01-27T11:04:16.356Z,6.59
2019-01-27T11:04:49.236Z,6.57
2019-01-27T11:05:58.051Z,6.58
2019-01-27T11:06:50.744Z,6.58
2019-01-27T11:07:49.935Z,6.57
2019-01-27T11:08:54.165Z,6.56
2019-01-27T11:09:49.553Z,6.56
2019-01-27T11:10:54.766Z,6.57
2019-01-27T11:11:50.195Z,6.55
2019-01-27T11:12:53.104Z,6.55
2019-01-27T11:14:21.882Z,6.56
2019-01-27T11:15:59.293Z,6.55
2019-01-27T11:17:49.458Z,6.59
2019-01-27T11:19:02.008Z,6.6
2019-01-27T11:19:56.075Z,6.61
2019-01-27T11:20:46.719Z,6.63
2019-01-27T11:21:47.138Z,6.63
2019-01-27T11:22:46.837Z,6.62
2019-01-27T11:24:02.836Z,6.6
2019-01-27T11:24:46.769Z,6.58
2019-01-27T11:25:46.773Z,6.55
2019-01-27T11:26:46.639Z,6.54
2019-01-27T11:27:46.682Z,6.56
2019-01-27T11:28:46.564Z,6.55
2019-01-27T11:29:46.831Z,6.55
2019-01-27T11:30:46.904Z,6.57
2019-01-27T11:31:46.831Z,6.57
2019-01-27T11:32:46.599Z,6.57
2019-01-27T11:33:46.562Z,6.62
2019-01-27T11:34:46.901Z,6.59
2019-01-27T11:35:46.609Z,6.59
2019-01-27T11:36:46.709Z,6.55
2019-01-27T11:37:46.674Z,6.53
2019-01-27T11:38:46.597Z,6.5
2019-01-27T11:39:46.827Z,6.51
2019-01-27T11:40:46.576Z,6.53
2019-01-27T11:41:46.721Z,6.56
2019-01-27T11:42:46.666Z,6.62
2019-01-27T11:43:46.649Z,6.61
2019-01-27T11:44:46.618Z,6.6
2019-01-27T11:45:46.677Z,6.59
2019-01-27T11:46:47.128Z,6.55
2019-01-27T11:47:46.682Z,6.52
2019-01-27T11:48:46.606Z,6.57
2019-01-27T11:49:46.643Z,6.56
2019-01-27T11:50:46.593Z,6.61
2019-01-27T11:51:46.983Z,6.6
2019-01-27T11:52:46.968Z,6.59
2019-01-27T11:53:46.605Z,6.51
2019-01-27T11:54:46.714Z,6.5
2019-01-27T11:55:46.696Z,6.44
2019-01-27T11:56:52.961Z,6.44
2019-01-27T11:57:57.551Z,6.42
2019-01-27T11:58:46.599Z,6.42
2019-01-27T11:59:46.682Z,6.43
2019-01-27T12:00:46.546Z,6.43
2019-01-27T12:01:46.549Z,6.37
2019-01-27T12:02:47.139Z,6.28
2019-01-27T12:03:47.279Z,6.25
2019-01-27T12:04:46.749Z,6.23
2019-01-27T12:05:46.797Z,6.25
2019-01-27T12:06:46.731Z,6.22
2019-01-27T12:07:46.489Z,6.19
2019-01-27T12:08:46.745Z,6.2
2019-01-27T12:09:46.540Z,6.15
2019-01-27T12:10:46.615Z,6.17
2019-01-27T12:11:46.599Z,6.22
2019-01-27T12:12:46.777Z,6.16
2019-01-27T12:13:46.669Z,6.12
2019-01-27T12:14:46.691Z,6.04
2019-01-27T12:15:46.800Z,6.07
2019-01-27T12:16:46.716Z,6.12
2019-01-27T12:18:46.503Z,6.11
2019-01-27T12:19:46.613Z,6.1
2019-01-27T12:20:46.544Z,6.12
2019-01-27T12:21:46.769Z,6.09
2019-01-27T12:22:46.654Z,6.07
2019-01-27T12:23:46.523Z,6.09
2019-01-27T12:24:46.763Z,6.1
2019-01-27T12:25:46.581Z,6.05
2019-01-27T12:26:46.486Z,6.09
2019-01-27T12:27:46.769Z,6.09
2019-01-27T12:28:47.303Z,6.09
2019-01-27T12:29:46.714Z,6.04
2019-01-27T12:30:48.322Z,6.03
2019-01-27T12:31:47.162Z,6.08
2019-01-27T12:32:46.603Z,6.03
2019-01-27T12:33:46.962Z,6.02
2019-01-27T12:34:46.589Z,6.09
2019-01-27T12:35:46.588Z,5.99
2019-01-27T12:36:46.857Z,6.04
2019-01-27T12:37:46.644Z,6.02
2019-01-27T12:38:46.584Z,6.02
2019-01-27T12:39:47.133Z,6.02
2019-01-27T12:40:46.557Z,6.06
2019-01-27T12:41:46.484Z,6.09
2019-01-27T12:42:46.598Z,6.08
2019-01-27T12:43:46.656Z,6.04
2019-01-27T12:44:46.840Z,6.08
2019-01-27T12:45:46.787Z,5.97
2019-01-27T12:46:46.558Z,5.98
2019-01-27T12:47:46.758Z,6.02
2019-01-27T12:48:46.481Z,6.02
2019-01-27T12:49:46.511Z,6.02
2019-01-27T12:50:46.579Z,5.99
2019-01-27T12:51:46.695Z,5.98
2019-01-27T12:52:46.964Z,6.07
2019-01-27T12:53:46.888Z,6.04
2019-01-27T12:54:46.596Z,6.04
2019-01-27T12:55:47.330Z,6.05
2019-01-27T12:56:46.253Z,6.04
2019-01-27T12:57:46.626Z,6.07
2019-01-27T12:58:46.439Z,6.07
2019-01-27T12:59:47.000Z,6.06
2019-01-27T13:00:46.863Z,6.08
2019-01-27T13:01:48.276Z,6.13
2019-01-27T13:02:46.455Z,6.14
2019-01-27T13:03:46.463Z,6.18
2019-01-27T13:04:46.513Z,6.17
2019-01-27T13:05:46.645Z,6.15
2019-01-27T13:06:46.678Z,6.12
2019-01-27T13:07:46.666Z,6.16
2019-01-27T13:08:46.957Z,6.1
2019-01-27T13:09:46.662Z,6.13
2019-01-27T13:10:46.691Z,6.1
2019-01-27T13:11:46.815Z,6.16
2019-01-27T13:12:46.576Z,6.07
2019-01-27T13:13:46.539Z,6.11
2019-01-27T13:14:46.811Z,6.1
2019-01-27T13:15:46.959Z,6.16
2019-01-27T13:16:46.510Z,6.16
2019-01-27T13:17:46.705Z,6.16
2019-01-27T13:18:46.922Z,6.2
2019-01-27T13:19:54.308Z,6.18
2019-01-27T13:20:46.472Z,6.16
2019-01-27T13:21:46.518Z,6.2
2019-01-27T13:22:46.485Z,6.18
2019-01-27T13:23:46.510Z,6.19
2019-01-27T13:24:46.473Z,6.2
2019-01-27T13:25:46.578Z,6.21
2019-01-27T13:26:47.224Z,6.17
2019-01-27T13:27:46.579Z,6.18